Time;durP1;ratioP1;P1;durP2;ratioP2;P2;SDS_P1;SDS_P2;PMS_P1;PMS_P2;Temp;Humidity;BMP_temperature;BMP_pressure;BME280_temperature;BME280_humidity;BME280_pressure;Samples;Min_cycle;Max_cycle;Signal;HPM_P1;HPM_P2
2023/07/11 00:00:43;;;;;;;12.98;7.93;;;21.40;85.00;;;21.40;63.12;97511.25;5012318;28;20025;-36
2023/07/11 00:03:10;;;;;;;12.20;8.15;;;21.40;85.30;;;21.37;63.36;97514.19;5011774;28;20575;-36
2023/07/11 00:05:36;;;;;;;15.05;9.43;;;21.30;85.50;;;21.32;64.04;97516.41;5009572;28;21153;-36
2023/07/11 00:08:03;;;;;;;14.63;9.52;;;21.20;85.70;;;21.30;63.55;97504.91;4995511;28;20409;-36
2023/07/11 00:10:29;;;;;;;16.38;10.05;;;21.20;85.60;;;21.27;64.23;97505.19;5006931;28;20116;-36
2023/07/11 00:12:54;;;;;;;17.77;10.32;;;21.10;85.80;;;21.22;65.11;97507.38;5007514;28;20520;-36
2023/07/11 00:15:20;;;;;;;17.83;10.52;;;21.10;86.40;;;21.18;63.86;97498.69;5004898;28;20111;-36
2023/07/11 00:17:47;;;;;;;16.40;11.68;;;21.10;85.80;;;21.13;63.83;97493.69;5007687;28;20079;-36
2023/07/11 00:20:14;;;;;;;20.13;12.77;;;21.10;85.80;;;21.09;63.69;97494.91;5005594;28;20166;-36
2023/07/11 00:22:42;;;;;;;21.52;13.32;;;21.00;85.50;;;21.01;63.27;97489.28;5008378;28;20190;-36
2023/07/11 00:25:08;;;;;;;17.85;12.40;;;21.00;85.30;;;21.04;63.34;97496.25;5004766;28;20047;-36
2023/07/11 00:27:34;;;;;;;18.92;12.70;;;21.00;85.50;;;21.01;63.80;97486.59;5001536;28;20483;-36
2023/07/11 00:29:59;;;;;;;18.23;12.20;;;20.90;85.90;;;20.98;63.86;97492.22;5004035;28;20041;-36
2023/07/11 00:32:25;;;;;;;20.58;13.32;;;20.90;85.80;;;20.95;63.90;97487.94;5006332;28;20494;-36
2023/07/11 00:34:51;;;;;;;18.98;12.52;;;20.90;87.00;;;20.91;65.20;97482.94;5005740;28;20041;-36
2023/07/11 00:37:16;;;;;;;19.27;11.57;;;20.80;86.60;;;20.88;65.87;97485.88;5003791;28;20379;-36
2023/07/11 00:39:43;;;;;;;15.43;11.10;;;20.80;87.00;;;20.85;64.47;97480.72;5002019;28;20595;-36
2023/07/11 00:42:10;;;;;;;14.25;10.80;;;20.80;86.30;;;20.83;64.33;97482.69;5005585;28;20045;-36
2023/07/11 00:44:55;;;;;;;18.58;11.23;;;20.80;86.30;;;20.77;65.89;97476.81;4999035;28;20046;-36
2023/07/11 00:47:25;;;;;;;17.38;10.50;;;20.70;87.20;;;20.74;65.77;97477.03;4998273;28;20043;-36
2023/07/11 00:49:57;;;;;;;15.85;9.93;;;20.70;87.10;;;20.73;64.81;97478.03;5003995;28;20029;-36
2023/07/11 00:52:23;;;;;;;14.10;8.93;;;20.70;86.50;;;20.71;65.72;97465.72;4997930;28;20569;-36
2023/07/11 00:54:54;;;;;;;12.63;8.43;;;20.60;87.00;;;20.71;66.09;97476.44;5002065;28;20037;-36
2023/07/11 00:57:24;;;;;;;12.80;7.63;;;20.60;87.20;;;20.69;67.03;97465.84;5002441;28;20041;-36
2023/07/11 00:59:51;;;;;;;7.90;5.65;;;20.60;87.90;;;20.65;69.05;97469.72;5016743;28;20087;-36
2023/07/11 01:02:25;;;;;;;9.45;5.75;;;20.60;88.90;;;20.64;70.74;97473.38;4998699;28;20033;-36
2023/07/11 01:04:51;;;;;;;7.03;4.95;;;20.60;89.70;;;20.62;70.62;97469.09;5009192;28;20036;-36
2023/07/11 01:07:22;;;;;;;9.38;5.15;;;20.50;89.80;;;20.59;71.54;97465.66;5011221;28;20480;-36
2023/07/11 01:09:48;;;;;;;6.82;5.13;;;20.50;90.00;;;20.56;71.50;97465.88;5006894;28;20057;-36
2023/07/11 01:12:16;;;;;;;8.40;4.75;;;20.50;90.10;;;20.54;72.02;97461.63;5012536;28;20735;-36
2023/07/11 01:14:46;;;;;;;8.07;5.38;;;20.40;90.10;;;20.43;72.69;97449.06;5017013;28;20566;-36
2023/07/11 01:17:28;;;;;;;7.80;4.90;;;20.40;90.30;;;20.48;74.51;97459.44;5011972;28;20033;-36
2023/07/11 01:19:56;;;;;;;7.25;4.65;;;20.40;90.70;;;20.37;75.43;97454.88;5017305;28;20044;-36
2023/07/11 01:22:23;;;;;;;6.85;4.57;;;20.40;91.00;;;20.41;76.46;97457.19;5014384;28;20057;-35
2023/07/11 01:24:51;;;;;;;8.27;4.57;;;20.30;91.10;;;20.37;76.73;97450.38;5010785;28;20076;-36
2023/07/11 01:27:19;;;;;;;7.75;4.63;;;20.30;91.30;;;20.35;77.54;97446.09;5013351;28;20128;-35
2023/07/11 01:29:44;;;;;;;7.82;4.55;;;20.30;91.50;;;20.31;78.90;97453.50;5018667;28;20262;-35
2023/07/11 01:32:10;;;;;;;6.90;4.45;;;20.20;91.70;;;20.28;79.13;97444.84;5009395;28;20513;-36
2023/07/11 01:34:36;;;;;;;6.28;4.50;;;20.20;91.80;;;20.25;79.07;97443.28;5016031;28;20412;-36
2023/07/11 01:37:02;;;;;;;7.57;4.70;;;20.20;91.80;;;20.24;79.90;97452.25;5016075;28;20029;-36
2023/07/11 01:39:27;;;;;;;6.72;4.50;;;20.20;92.00;;;20.22;80.52;97448.84;5009443;28;20108;-35
2023/07/11 01:41:53;;;;;;;7.85;4.45;;;20.20;92.10;;;20.19;81.35;97449.94;5014205;28;20397;-35
2023/07/11 01:44:22;;;;;;;9.35;4.70;;;20.10;92.20;;;20.16;82.11;97442.13;5006351;28;20127;-35
2023/07/11 01:46:48;;;;;;;6.47;5.00;;;20.10;92.50;;;20.14;83.23;97443.25;5012895;28;20063;-36
2023/07/11 01:49:14;;;;;;;8.57;4.70;;;20.10;92.70;;;20.11;83.87;97440.78;5012313;28;20116;-36
2023/07/11 01:51:45;;;;;;;6.32;4.22;;;20.10;92.80;;;20.06;83.79;97434.91;5016096;28;20033;-35
2023/07/11 01:54:11;;;;;;;7.50;4.65;;;20.00;92.80;;;19.98;84.20;97422.97;5011930;28;20037;-36
2023/07/11 01:56:37;;;;;;;8.40;4.75;;;19.90;92.80;;;19.89;84.39;97412.94;5013587;28;20066;-35
2023/07/11 01:59:04;;;;;;;7.63;4.78;;;20.00;92.90;;;19.94;85.08;97424.16;5014975;28;20338;-36
2023/07/11 02:01:29;;;;;;;6.35;4.45;;;19.90;93.00;;;19.90;85.37;97421.81;5010766;28;20516;-35
2023/07/11 02:03:55;;;;;;;8.10;4.90;;;19.80;93.10;;;19.80;86.22;97416.31;5011759;28;20045;-36
2023/07/11 02:06:21;;;;;;;6.85;4.95;;;19.80;93.30;;;19.82;86.71;97427.75;5012204;28;20033;-35
2023/07/11 02:08:47;;;;;;;7.13;5.00;;;19.80;93.40;;;19.77;87.16;97430.75;5018420;28;20021;-35
2023/07/11 02:11:13;;;;;;;8.27;5.15;;;19.70;93.50;;;19.71;87.41;97420.47;5014437;28;20112;-36
2023/07/11 02:13:40;;;;;;;8.27;5.00;;;19.70;93.60;;;19.68;87.82;97425.19;5013009;28;20113;-35
2023/07/11 02:16:07;;;;;;;7.70;5.00;;;19.60;93.60;;;19.64;88.42;97420.06;5013115;28;20091;-35
2023/07/11 02:18:34;;;;;;;8.10;5.32;;;19.60;93.70;;;19.61;88.69;97423.00;5015080;28;20037;-35
2023/07/11 02:21:00;;;;;;;7.35;5.30;;;19.50;93.90;;;19.50;89.27;97408.69;5017347;28;20032;-35
2023/07/11 02:23:26;;;;;;;8.63;5.18;;;19.50;94.00;;;19.48;89.76;97405.28;5009624;28;20432;-36
2023/07/11 02:25:53;;;;;;;7.80;5.25;;;19.50;94.10;;;19.53;90.40;97416.50;4989899;28;20497;-35
2023/07/11 02:28:20;;;;;;;9.52;5.53;;;19.50;94.30;;;19.50;90.82;97414.03;5005720;28;20049;-36
2023/07/11 02:30:46;;;;;;;10.63;5.78;;;19.50;94.40;;;19.47;90.35;97401.75;5010773;28;20421;-35
2023/07/11 02:33:12;;;;;;;11.55;5.78;;;19.40;94.30;;;19.44;90.28;97407.31;5008898;28;20029;-36
2023/07/11 02:35:37;;;;;;;9.50;5.80;;;19.40;94.30;;;19.41;90.29;97407.53;5014027;28;20037;-35
2023/07/11 02:38:03;;;;;;;9.52;5.50;;;19.40;94.40;;;19.39;91.05;97409.47;5015493;28;20505;-36
2023/07/11 02:40:29;;;;;;;7.55;5.32;;;19.40;94.50;;;19.37;91.65;97404.22;5008462;28;20048;-35
2023/07/11 02:42:55;;;;;;;8.70;5.47;;;19.30;94.70;;;19.36;92.31;97404.34;5012041;28;20159;-35
2023/07/11 02:45:20;;;;;;;10.30;5.55;;;19.40;94.80;;;19.29;92.58;97400.41;5009200;28;20029;-35
2023/07/11 02:47:46;;;;;;;8.52;5.15;;;19.30;94.90;;;19.33;93.17;97397.41;5012151;28;20059;-35
2023/07/11 02:50:12;;;;;;;8.98;5.40;;;19.30;95.10;;;19.14;93.11;97379.16;5008514;28;20038;-35
2023/07/11 02:52:38;;;;;;;9.55;5.95;;;19.30;95.10;;;19.22;92.51;97387.47;5014251;28;20040;-35
2023/07/11 02:55:05;;;;;;;8.65;5.35;;;19.30;95.00;;;19.31;93.00;97395.78;5011495;28;20029;-35
2023/07/11 02:57:31;;;;;;;6.75;4.75;;;19.30;95.10;;;19.29;93.51;97392.38;5012645;28;20108;-35
2023/07/11 02:59:56;;;;;;;7.35;4.88;;;19.20;95.20;;;19.26;93.35;97388.97;5012436;28;20548;-35
2023/07/11 03:02:22;;;;;;;6.93;5.00;;;19.20;95.20;;;19.25;93.70;97389.91;5004649;28;20041;-36
2023/07/11 03:04:48;;;;;;;5.82;4.63;;;19.20;95.30;;;19.25;93.59;97391.75;5012832;28;20104;-35
2023/07/11 03:07:13;;;;;;;8.25;4.88;;;19.20;95.40;;;19.18;94.21;97372.59;5003897;28;20057;-35
2023/07/11 03:09:41;;;;;;;7.55;5.03;;;19.20;95.50;;;19.21;94.34;97391.09;5008672;28;20075;-35
2023/07/11 03:12:07;;;;;;;7.57;5.20;;;19.20;95.60;;;19.21;93.77;97384.91;5010480;28;20061;-35
2023/07/11 03:14:33;;;;;;;8.40;5.13;;;19.20;95.50;;;19.19;93.23;97387.69;5012102;28;20029;-35
2023/07/11 03:16:58;;;;;;;8.23;5.18;;;19.10;95.40;;;19.18;92.92;97379.78;5006924;28;20076;-35
2023/07/11 03:19:24;;;;;;;9.60;5.57;;;19.20;95.40;;;19.18;93.35;97385.13;5008139;28;20033;-35
2023/07/11 03:21:50;;;;;;;12.10;6.03;;;19.10;95.40;;;19.17;94.04;97380.75;5008433;28;20395;-35
2023/07/11 03:24:16;;;;;;;8.27;5.55;;;19.10;95.60;;;19.15;94.68;97383.53;5005854;28;20026;-35
2023/07/11 03:26:46;;;;;;;11.60;5.78;;;19.10;95.80;;;19.14;94.40;97373.81;5013067;28;20504;-35
2023/07/11 03:29:13;;;;;;;8.07;5.50;;;19.10;95.80;;;19.12;95.07;97373.06;5011123;28;20080;-35
2023/07/11 03:31:40;;;;;;;7.47;5.13;;;19.10;95.90;;;19.08;95.36;97372.44;5011371;28;20120;-35
2023/07/11 03:34:06;;;;;;;9.25;5.75;;;19.10;96.10;;;19.08;96.20;97371.59;5008920;28;20265;-35
2023/07/11 03:36:32;;;;;;;8.57;5.72;;;19.00;96.20;;;19.06;96.93;97374.38;5013693;28;20037;-35
2023/07/11 03:38:57;;;;;;;7.60;5.47;;;19.00;96.40;;;19.03;97.21;97374.56;5010777;28;20620;-36
2023/07/11 03:41:23;;;;;;;9.13;5.63;;;19.00;96.90;;;19.02;97.35;97370.22;5010871;28;20044;-37
2023/07/11 03:43:49;;;;;;;9.52;5.93;;;19.00;96.50;;;19.01;97.65;97370.31;5009041;28;21912;-35
2023/07/11 03:46:14;;;;;;;7.45;5.38;;;19.00;96.60;;;18.93;97.83;97353.97;5010426;28;20032;-35
2023/07/11 03:48:40;;;;;;;8.93;5.85;;;19.00;96.70;;;19.01;97.45;97376.50;5010265;28;20037;-35
2023/07/11 03:51:06;;;;;;;9.63;5.57;;;19.00;96.70;;;19.01;97.96;97365.81;5010584;28;20033;-35
2023/07/11 03:53:31;;;;;;;10.80;5.72;;;19.00;96.80;;;19.03;98.23;97371.91;5014970;28;20041;-35
2023/07/11 03:55:57;;;;;;;7.70;5.40;;;19.00;96.90;;;19.05;98.52;97366.44;5012688;28;20687;-35
2023/07/11 03:58:24;;;;;;;8.38;5.40;;;19.00;97.00;;;19.06;98.99;97365.50;5012059;28;20600;-35
2023/07/11 04:00:50;;;;;;;8.73;5.32;;;19.00;97.20;;;19.05;99.11;97375.31;5011988;28;20410;-35
2023/07/11 04:03:16;;;;;;;7.07;5.25;;;19.00;97.60;;;19.08;99.22;97366.25;5013132;28;20038;-35
2023/07/11 04:05:42;;;;;;;7.00;4.97;;;19.10;97.30;;;19.13;99.44;97368.56;5015070;28;20120;-35
2023/07/11 04:08:08;;;;;;;7.18;5.38;;;19.10;97.40;;;19.05;99.94;97353.09;5009585;28;20092;-35
2023/07/11 04:10:34;;;;;;;7.72;5.22;;;19.10;97.50;;;19.13;99.68;97360.53;5012490;28;20025;-35
2023/07/11 04:13:01;;;;;;;6.82;4.93;;;19.10;97.50;;;19.18;100.00;97364.59;5005052;28;20025;-35
2023/07/11 04:15:26;;;;;;;7.60;5.15;;;19.20;97.60;;;19.16;100.00;97350.47;4999587;28;20473;-35
2023/07/11 04:17:52;;;;;;;7.97;4.90;;;19.20;98.00;;;19.19;100.00;97344.91;5008403;28;20737;-35
2023/07/11 04:20:18;;;;;;;11.50;5.40;;;19.20;97.80;;;19.35;99.65;97363.38;5002493;28;21750;-35
2023/07/11 04:22:43;;;;;;;6.40;4.82;;;19.30;97.70;;;19.39;99.69;97350.63;5001716;28;20026;-35
2023/07/11 04:25:09;;;;;;;6.90;4.90;;;19.40;97.70;;;19.45;100.00;97347.50;4996240;28;20437;-35
2023/07/11 04:27:35;;;;;;;9.25;5.35;;;19.40;97.80;;;19.55;99.76;97351.19;4997128;28;20489;-35
2023/07/11 04:30:01;;;;;;;7.15;4.88;;;19.50;97.80;;;19.63;99.69;97351.50;4989885;28;20033;-35
2023/07/11 04:32:28;;;;;;;7.85;5.13;;;19.60;97.70;;;19.71;98.85;97355.44;4996210;28;20045;-35
2023/07/11 04:34:54;;;;;;;7.55;4.50;;;19.70;97.60;;;19.80;96.74;97355.59;4999057;28;20038;-35
2023/07/11 04:37:19;;;;;;;7.13;4.70;;;19.80;97.30;;;19.91;96.01;97356.63;5002733;28;20034;-35
2023/07/11 04:39:45;;;;;;;9.77;5.10;;;19.90;97.10;;;19.97;95.07;97349.00;5007130;28;21309;-35
2023/07/11 04:42:11;;;;;;;7.75;4.78;;;20.00;97.00;;;20.11;92.97;97352.44;5004697;28;20044;-36
2023/07/11 04:44:37;;;;;;;6.80;5.18;;;20.00;96.60;;;20.22;92.18;97355.13;5006283;28;20029;-37
2023/07/11 04:47:03;;;;;;;7.05;5.00;;;20.20;96.80;;;20.25;91.50;97346.03;5009945;28;20171;-36
2023/07/11 04:49:28;;;;;;;8.45;5.13;;;20.20;96.30;;;20.38;90.45;97358.31;5008450;28;20026;-37
2023/07/11 04:51:54;;;;;;;7.50;4.80;;;20.30;96.10;;;20.48;89.66;97355.81;5009524;28;20382;-37
2023/07/11 04:54:20;;;;;;;9.02;5.40;;;20.40;96.30;;;20.58;89.16;97350.56;5014628;28;20029;-36
2023/07/11 04:56:58;;;;;;;6.95;5.15;;;20.50;95.80;;;20.67;88.70;97355.22;5006113;28;20448;-36
2023/07/11 04:59:24;;;;;;;8.13;5.63;;;20.60;95.80;;;20.74;86.71;97352.94;5010462;28;20053;-36
2023/07/11 05:01:50;;;;;;;8.75;5.75;;;20.70;95.40;;;20.82;86.01;97353.19;5009926;28;20054;-36
2023/07/11 05:04:16;;;;;;;9.02;6.40;;;20.70;95.10;;;20.89;85.02;97350.84;5002707;28;20017;-36
2023/07/11 05:06:41;;;;;;;6.82;4.90;;;20.90;94.90;;;20.96;84.71;97347.56;5004316;28;20034;-36
2023/07/11 05:09:07;;;;;;;9.30;5.47;;;20.90;94.80;;;21.05;83.21;97348.66;5000260;28;20091;-38
2023/07/11 05:11:36;;;;;;;8.05;4.88;;;21.00;94.60;;;21.10;82.42;97346.47;4997048;28;20494;-36
2023/07/11 05:14:04;;;;;;;8.77;5.00;;;21.10;94.30;;;21.20;81.31;97349.25;5003956;28;20045;-36
2023/07/11 05:16:31;;;;;;;9.55;4.72;;;21.10;94.10;;;21.31;80.58;97351.06;5003582;28;20119;-36
2023/07/11 05:18:58;;;;;;;8.23;5.05;;;21.20;93.90;;;21.40;79.48;97350.31;5000003;28;20386;-35
2023/07/11 05:21:26;;;;;;;7.38;4.68;;;21.30;93.70;;;21.51;78.38;97347.63;4999667;28;20048;-37
2023/07/11 05:23:52;;;;;;;7.45;5.00;;;21.40;93.40;;;21.64;77.53;97344.81;5007714;28;20497;-35
2023/07/11 05:26:18;;;;;;;6.72;5.15;;;21.50;93.20;;;21.82;76.59;97347.78;5007783;28;20037;-36
2023/07/11 05:28:47;;;;;;;7.10;4.50;;;21.70;93.00;;;22.07;73.94;97334.94;5003400;28;20246;-36
2023/07/11 05:31:13;;;;;;;6.97;4.85;;;21.80;92.70;;;22.37;72.40;97341.41;5005407;28;20045;-36
2023/07/11 05:33:39;;;;;;;6.38;4.53;;;22.00;92.30;;;22.80;69.66;97332.31;4995587;28;20065;-36
2023/07/11 05:36:30;;;;;;;7.18;4.78;;;22.30;91.90;;;23.24;65.46;97336.47;5002424;28;20034;-37
2023/07/11 05:39:17;;;;;;;5.38;4.15;;;22.60;91.50;;;23.56;65.06;97330.03;5002803;28;20036;-37
2023/07/11 05:41:48;;;;;;;6.38;4.20;;;22.90;91.10;;;23.59;64.90;97329.72;5002509;28;20045;-37
2023/07/11 05:44:14;;;;;;;6.72;5.00;;;23.10;90.80;;;23.57;65.80;97328.16;5005661;28;20029;-37
2023/07/11 05:46:41;;;;;;;6.65;4.53;;;23.10;90.80;;;23.53;64.17;97326.75;4996151;28;20029;-37
2023/07/11 05:49:07;;;;;;;7.38;4.85;;;23.20;90.30;;;23.51;63.55;97320.63;4998228;28;20030;-39
2023/07/11 05:51:34;;;;;;;7.45;5.30;;;23.30;90.20;;;23.47;63.53;97321.91;5006842;28;20049;-38
2023/07/11 05:53:59;;;;;;;6.78;4.50;;;23.30;89.70;;;23.55;63.13;97322.06;5010385;28;20483;-37
2023/07/11 05:56:53;;;;;;;8.38;4.72;;;23.40;89.40;;;23.58;63.33;97325.34;5013698;28;20029;-36
2023/07/11 05:59:19;;;;;;;7.15;4.65;;;23.40;89.30;;;23.58;62.99;97311.88;5019833;28;20690;-37
2023/07/11 06:01:44;;;;;;;6.75;4.70;;;23.50;89.10;;;23.73;62.44;97316.84;5012479;28;20030;-37
2023/07/11 06:04:12;;;;;;;6.63;4.65;;;23.60;88.80;;;23.82;62.41;97318.72;5017087;28;20049;-37
2023/07/11 06:06:42;;;;;;;7.53;5.07;;;23.60;88.80;;;23.94;61.91;97322.09;5018825;28;20034;-37
2023/07/11 06:09:14;;;;;;;7.43;4.65;;;23.80;88.50;;;24.00;61.67;97300.84;5017437;28;20152;-37
2023/07/11 06:11:40;;;;;;;7.70;5.20;;;23.90;88.40;;;24.10;59.42;97305.38;5018813;28;20033;-37
2023/07/11 06:14:07;;;;;;;8.85;5.15;;;24.00;87.70;;;24.29;59.48;97315.28;5011262;28;20045;-37
2023/07/11 06:16:33;;;;;;;6.63;4.80;;;24.10;86.90;;;24.42;59.88;97317.66;5010936;28;20409;-36
2023/07/11 06:18:59;;;;;;;7.32;4.85;;;24.20;87.20;;;24.55;59.03;97312.84;5014769;28;20661;-37
2023/07/11 06:21:25;;;;;;;7.50;5.10;;;24.40;86.60;;;24.72;57.47;97311.22;5015275;28;20034;-39
2023/07/11 06:23:50;;;;;;;6.40;4.28;;;24.50;85.90;;;24.85;57.16;97313.56;5016813;28;20045;-37
2023/07/11 06:26:16;;;;;;;6.40;5.03;;;24.70;85.30;;;24.95;59.53;97299.03;5016467;28;20045;-36
2023/07/11 06:28:43;;;;;;;7.05;4.80;;;24.90;86.80;;;25.23;56.82;97309.84;5014819;28;20048;-36
2023/07/11 06:31:12;;;;;;;6.53;4.40;;;25.00;85.20;;;25.36;55.48;97298.72;5014258;28;20041;-36
2023/07/11 06:33:37;;;;;;;6.80;4.63;;;25.20;84.50;;;25.60;54.26;97299.97;5016327;28;20493;-36
2023/07/11 06:36:05;;;;;;;7.55;4.38;;;25.40;83.80;;;25.77;53.31;97309.06;5018527;28;20029;-37
2023/07/11 06:38:31;;;;;;;7.88;4.63;;;25.50;82.80;;;25.92;51.89;97311.06;5019376;28;20033;-36
2023/07/11 06:40:57;;;;;;;8.13;5.15;;;25.60;81.80;;;26.12;51.34;97305.53;5018207;28;20075;-36
2023/07/11 06:43:25;;;;;;;9.70;5.05;;;25.80;81.10;;;26.24;49.99;97301.56;5015096;28;20029;-35
2023/07/11 06:45:57;;;;;;;9.90;5.38;;;26.00;80.40;;;26.39;49.77;97306.41;5016869;28;20034;-36
2023/07/11 06:48:26;;;;;;;6.93;5.07;;;26.10;80.10;;;26.52;50.79;97305.97;5013947;28;23821;-35
2023/07/11 06:50:59;;;;;;;8.60;5.07;;;26.20;80.30;;;26.65;49.52;97299.16;5019643;28;20048;-36
2023/07/11 06:53:28;;;;;;;7.85;4.55;;;26.30;79.70;;;26.77;49.15;97305.13;5013403;28;20094;-36
2023/07/11 06:55:54;;;;;;;6.03;4.82;;;26.40;79.20;;;26.91;48.84;97300.97;5015357;28;20095;-36
2023/07/11 06:58:21;;;;;;;8.40;4.50;;;26.60;79.00;;;27.04;47.66;97305.94;5020068;28;20083;-36
2023/07/11 07:01:01;;;;;;;13.30;5.00;;;26.70;78.00;;;27.08;47.40;97293.78;5022588;28;20032;-36
2023/07/11 07:03:27;;;;;;;5.75;4.28;;;26.70;77.30;;;27.12;48.51;97300.56;5009042;28;20277;-36
2023/07/11 07:05:56;;;;;;;6.95;4.85;;;26.80;78.50;;;27.06;48.50;97298.50;5017301;28;20043;-36
2023/07/11 07:08:24;;;;;;;9.82;4.70;;;26.80;78.80;;;27.09;47.70;97298.16;5011901;28;20308;-36
2023/07/11 07:10:50;;;;;;;5.93;4.40;;;26.80;77.90;;;27.16;47.44;97296.50;5013711;28;20048;-36
2023/07/11 07:13:18;;;;;;;10.38;5.20;;;26.80;77.30;;;27.20;47.40;97302.44;5012466;28;20033;-37
2023/07/11 07:15:53;;;;;;;8.13;5.03;;;26.90;77.30;;;27.30;46.06;97294.22;5020934;28;20037;-36
2023/07/11 07:18:19;;;;;;;9.85;4.28;;;27.00;76.10;;;27.26;46.67;97287.41;5019368;28;20048;-36
2023/07/11 07:20:47;;;;;;;6.13;4.18;;;26.90;76.10;;;27.14;46.41;97292.28;5021960;28;20079;-36
2023/07/11 07:23:12;;;;;;;7.18;4.38;;;26.80;75.90;;;27.03;47.04;97293.44;5012791;28;20025;-36
2023/07/11 07:25:39;;;;;;;10.07;4.85;;;26.70;76.20;;;26.91;47.39;97292.00;5012457;28;20033;-36
2023/07/11 07:28:04;;;;;;;8.05;5.38;;;26.60;76.50;;;26.85;47.39;97286.22;5012702;28;20039;-36
2023/07/11 07:30:30;;;;;;;8.70;5.30;;;26.60;76.80;;;26.90;48.14;97274.06;5011994;28;20248;-36
2023/07/11 07:32:57;;;;;;;6.20;4.80;;;26.60;77.30;;;27.00;47.76;97269.38;5011643;28;20363;-37
2023/07/11 07:35:23;;;;;;;7.82;4.70;;;26.70;78.30;;;27.25;47.26;97278.44;5003650;28;20040;-36
2023/07/11 07:37:49;;;;;;;9.98;4.15;;;26.90;77.30;;;27.43;46.55;97275.63;5010091;28;20033;-36
2023/07/11 07:40:16;;;;;;;6.95;4.60;;;27.10;76.50;;;27.63;45.92;97273.47;5034720;22;20497;-38
2023/07/11 07:42:41;;;;;;;6.63;4.68;;;27.30;76.00;;;27.77;45.90;97270.09;5032196;28;20125;-36
2023/07/11 07:45:08;;;;;;;7.72;4.55;;;27.40;75.30;;;27.88;44.93;97268.91;5034039;28;20481;-37
2023/07/11 07:47:35;;;;;;;6.53;4.88;;;27.60;74.40;;;27.97;44.35;97277.91;5038208;28;20115;-36
2023/07/11 07:50:02;;;;;;;7.00;4.93;;;27.70;73.50;;;28.13;44.80;97272.50;5039067;28;20488;-36
2023/07/11 07:52:28;;;;;;;6.85;4.45;;;27.90;73.80;;;28.25;45.04;97270.28;5037269;28;20305;-37
2023/07/11 07:54:53;;;;;;;7.22;4.75;;;28.00;73.70;;;28.38;43.96;97270.59;5038734;28;20104;-36
2023/07/11 07:57:19;;;;;;;6.03;4.20;;;28.10;73.30;;;28.58;44.43;97275.66;5037912;28;20056;-37
2023/07/11 07:59:45;;;;;;;6.07;4.55;;;28.30;73.20;;;28.70;42.68;97274.28;5037552;28;20200;-36
2023/07/11 08:02:11;;;;;;;6.78;4.63;;;28.50;71.80;;;28.84;42.97;97266.44;5035548;28;20044;-36
2023/07/11 08:04:36;;;;;;;5.65;4.30;;;28.50;71.50;;;28.99;43.22;97266.56;5035175;28;20481;-36
2023/07/11 08:07:03;;;;;;;9.13;5.50;;;28.70;71.20;;;29.04;42.56;97258.72;5040566;28;20021;-36
2023/07/11 08:09:29;;;;;;;7.28;5.10;;;28.80;70.90;;;28.99;41.80;97239.41;5038109;28;20025;-36
2023/07/11 08:12:03;;;;;;;7.25;4.72;;;28.80;69.80;;;29.19;41.95;97242.56;5037026;28;20032;-37
2023/07/11 08:14:29;;;;;;;7.63;4.75;;;28.90;70.50;;;29.11;42.11;97221.72;5034867;28;20029;-36
2023/07/11 08:16:55;;;;;;;6.05;4.88;;;29.00;69.90;;;29.30;42.64;97250.28;5033773;28;20060;-36
2023/07/11 08:19:20;;;;;;;7.93;4.15;;;29.00;69.80;;;29.36;42.21;97240.59;5035983;28;20037;-36
2023/07/11 08:21:46;;;;;;;6.38;4.85;;;29.00;70.20;;;29.41;41.51;97244.44;5036981;28;20028;-36
2023/07/11 08:24:12;;;;;;;8.05;4.78;;;29.20;69.50;;;29.52;41.82;97245.91;5031128;28;20478;-36
2023/07/11 08:26:38;;;;;;;6.05;5.30;;;29.20;69.50;;;29.61;42.10;97239.41;5031819;28;20025;-38
2023/07/11 08:29:04;;;;;;;7.82;4.85;;;29.30;70.50;;;29.77;40.81;97241.16;5037250;28;20032;-37
2023/07/11 08:31:29;;;;;;;7.95;5.03;;;29.40;69.20;;;29.91;41.06;97230.53;5039854;28;20044;-37
2023/07/11 08:33:55;;;;;;;9.65;5.50;;;29.60;68.70;;;29.90;40.38;97218.81;5040107;28;20021;-36
2023/07/11 08:36:21;;;;;;;9.00;5.47;;;29.60;68.30;;;29.98;40.99;97220.63;5037975;28;20493;-37
2023/07/11 08:38:47;;;;;;;9.75;5.05;;;29.70;68.50;;;29.96;40.92;97214.53;5039410;28;20037;-36
2023/07/11 08:41:44;;;;;;;7.78;5.25;;;29.70;68.50;;;30.10;41.44;97219.16;5039598;28;20025;-36
2023/07/11 08:44:38;;;;;;;7.63;5.45;;;29.80;69.30;;;30.17;40.99;97214.66;5050709;28;20037;-37
2023/07/11 08:47:25;;;;;;;8.73;5.10;;;29.80;68.90;;;30.25;40.78;97216.44;5036919;28;20039;-38
2023/07/11 08:49:56;;;;;;;7.80;5.05;;;29.90;68.60;;;30.33;40.80;97210.94;5039644;28;20407;-36
2023/07/11 08:52:24;;;;;;;9.48;5.82;;;30.00;68.80;;;30.42;40.35;97212.56;5039640;28;20317;-37
2023/07/11 08:55:03;;;;;;;7.35;5.85;;;30.10;68.10;;;30.41;41.20;97205.41;5036859;28;20026;-36
2023/07/11 08:57:36;;;;;;;6.65;5.00;;;30.10;68.30;;;30.45;41.11;97200.44;5040891;28;20033;-36
2023/07/11 09:00:15;;;;;;;6.05;5.45;;;30.10;68.70;;;30.51;40.69;97185.25;5041290;28;20029;-36
2023/07/11 09:03:08;;;;;;;8.82;5.65;;;30.30;68.40;;;30.70;41.04;97195.56;5039481;28;20048;-37
2023/07/11 09:06:10;;;;;;;6.88;5.18;;;30.40;69.00;;;30.91;40.25;97193.94;5037856;28;20035;-38
2023/07/11 09:08:43;;;;;;;6.22;5.22;;;30.60;68.00;;;30.97;39.94;97174.16;5037964;28;20481;-37
2023/07/11 09:11:42;;;;;;;5.95;5.07;;;30.80;66.90;;;31.16;40.21;97187.16;5038580;28;20498;-37
2023/07/11 09:14:39;;;;;;;10.32;5.68;;;30.90;67.50;;;31.27;40.16;97184.97;5040278;28;20082;-37
2023/07/11 09:17:48;;;;;;;9.38;6.00;;;31.00;67.50;;;31.45;40.45;97173.63;5020754;28;20036;-38
2023/07/11 09:20:40;;;;;;;6.28;5.38;;;31.10;68.00;;;31.56;40.05;97165.78;5036266;28;20033;-37
2023/07/11 09:23:38;;;;;;;6.85;5.20;;;31.30;67.30;;;31.57;40.23;97155.75;5033744;28;20091;-37
2023/07/11 09:26:09;;;;;;;6.55;5.85;;;31.30;67.50;;;31.54;40.40;97154.25;5037753;28;20147;-37
2023/07/11 09:28:37;;;;;;;8.70;5.30;;;31.20;67.80;;;31.55;40.35;97153.22;5042972;28;20028;-37
2023/07/11 09:31:09;;;;;;;6.97;5.18;;;31.20;67.60;;;31.66;40.35;97160.00;5041319;28;20063;-37
2023/07/11 09:33:39;;;;;;;11.75;6.20;;;31.30;67.70;;;31.53;39.44;97146.25;5040729;28;20028;-37
2023/07/11 09:36:23;;;;;;;6.22;5.32;;;31.40;66.10;;;31.56;39.52;97151.31;5038306;28;20094;-37
2023/07/11 09:38:58;;;;;;;8.20;5.88;;;31.30;65.80;;;31.59;39.65;97145.47;5040517;28;20021;-37
2023/07/11 09:41:38;;;;;;;7.57;4.85;;;31.30;67.40;;;31.74;40.49;97153.56;5039349;28;20032;-37
2023/07/11 09:44:09;;;;;;;7.53;6.13;;;31.40;68.10;;;31.86;39.87;97153.88;5033379;28;21610;-37
2023/07/11 09:46:34;;;;;;;7.47;4.97;;;31.50;67.20;;;31.94;39.11;97146.41;5040432;28;20033;-36
2023/07/11 09:49:02;;;;;;;5.90;5.20;;;31.60;66.20;;;32.03;38.94;97141.63;5042889;28;20033;-36
2023/07/11 09:51:47;;;;;;;8.07;5.40;;;31.70;65.80;;;32.13;39.91;97144.03;5041217;28;20043;-38
2023/07/11 09:54:19;;;;;;;8.35;5.40;;;31.80;65.30;;;32.26;38.29;97146.00;5039057;28;20401;-37
2023/07/11 09:56:48;;;;;;;7.03;5.88;;;31.90;65.50;;;32.30;37.83;97144.56;5041173;28;20119;-37
2023/07/11 09:59:16;;;;;;;9.38;5.85;;;32.00;64.30;;;32.31;39.03;97141.63;5039654;28;20029;-36
2023/07/11 10:01:42;;;;;;;7.85;5.38;;;32.00;65.70;;;32.52;38.11;97137.13;5040597;28;20036;-37
2023/07/11 10:04:22;;;;;;;7.00;5.30;;;32.10;64.90;;;32.61;38.71;97135.09;5040111;28;20029;-36
2023/07/11 10:06:54;;;;;;;8.10;5.75;;;32.30;64.30;;;32.70;38.96;97134.72;5039511;28;20389;-36
2023/07/11 10:09:32;;;;;;;7.65;5.20;;;32.40;66.00;;;32.76;37.06;97132.22;5041160;28;20033;-36
2023/07/11 10:12:04;;;;;;;6.45;5.57;;;32.50;63.50;;;32.71;37.54;97132.81;5040847;28;20633;-37
2023/07/11 10:14:33;;;;;;;;;;;32.40;64.50;;;32.61;37.61;97132.34;5039672;28;20132;-37
2023/07/11 10:16:59;;;;;;;9.10;6.30;;;32.30;63.00;;;32.44;37.18;97132.66;5040978;28;19975;-37
2023/07/11 10:19:27;;;;;;;6.03;5.43;;;32.10;63.10;;;32.43;38.09;97124.69;5037845;28;20025;-37
2023/07/11 10:21:59;;;;;;;10.20;6.28;;;32.10;64.20;;;32.46;38.13;97124.28;5041249;28;20064;-37
2023/07/11 10:25:14;;;;;;;7.65;5.85;;;32.20;63.30;;;32.58;36.77;97121.84;5038399;28;20040;-37